Time;durP1;ratioP1;P1;durP2;ratioP2;P2;SDS_P1;SDS_P2;PMS_P1;PMS_P2;Temp;Humidity;BMP_temperature;BMP_pressure;BME280_temperature;BME280_humidity;BME280_pressure;Samples;Min_cycle;Max_cycle;Signal;HPM_P1;HPM_P2
2024/04/20 00:00:25;;;;;;;15.80;14.83;;;6.50;99.90;;;;;;5435423;26;20455;-44
2024/04/20 00:02:51;;;;;;;15.97;15.07;;;6.50;99.90;;;;;;5403595;26;20810;-48
2024/04/20 00:05:18;;;;;;;15.87;14.90;;;6.50;99.90;;;;;;5435205;26;20226;-51
2024/04/20 00:07:46;;;;;;;15.40;14.50;;;6.50;99.90;;;;;;5434003;26;20316;-50
2024/04/20 00:10:12;;;;;;;16.10;15.00;;;6.50;99.90;;;;;;5434850;26;20514;-50
2024/04/20 00:12:38;;;;;;;16.33;15.40;;;6.50;99.90;;;;;;5434670;26;20523;-48
2024/04/20 00:15:05;;;;;;;16.40;15.40;;;6.50;99.90;;;;;;5435117;26;20577;-50
2024/04/20 00:17:30;;;;;;;16.23;15.13;;;6.50;99.90;;;;;;5433315;26;20567;-48
2024/04/20 00:19:56;;;;;;;16.07;15.07;;;6.60;99.90;;;;;;5435383;26;20447;-47
2024/04/20 00:22:21;;;;;;;16.67;15.57;;;6.60;99.90;;;;;;5434800;26;20277;-51
2024/04/20 00:24:51;;;;;;;15.73;14.67;;;6.60;99.90;;;;;;5403810;26;20249;-52
2024/04/20 00:27:17;;;;;;;15.80;14.60;;;6.60;99.90;;;;;;5401655;26;20257;-49
2024/04/20 00:29:42;;;;;;;15.47;14.50;;;6.60;99.90;;;;;;5434911;26;20552;-50
2024/04/20 00:32:08;;;;;;;14.47;13.60;;;6.60;99.90;;;;;;5434866;26;20920;-46
2024/04/20 00:34:34;;;;;;;15.70;14.73;;;6.60;99.90;;;;;;5435287;26;20261;-45
2024/04/20 00:37:00;;;;;;;15.83;14.73;;;6.60;99.90;;;;;;5434567;26;21262;-51
2024/04/20 00:39:26;;;;;;;15.60;14.50;;;6.70;99.90;;;;;;5433394;26;20238;-45
2024/04/20 00:41:55;;;;;;;15.73;14.73;;;6.70;99.90;;;;;;5434191;26;20238;-50
2024/04/20 00:44:21;;;;;;;15.20;14.30;;;6.70;99.90;;;;;;5435193;26;20230;-48
2024/04/20 00:46:54;;;;;;;16.17;15.10;;;6.70;99.90;;;;;;5433943;26;20463;-47
2024/04/20 00:49:21;;;;;;;15.87;14.97;;;6.70;99.90;;;;;;5433119;26;20985;-48
2024/04/20 00:51:47;;;;;;;16.07;14.97;;;6.60;99.90;;;;;;5434758;26;20444;-49
2024/04/20 00:54:13;;;;;;;15.60;14.70;;;6.60;99.90;;;;;;5436645;26;20532;-46
2024/04/20 00:56:39;;;;;;;16.40;15.20;;;6.60;99.90;;;;;;5403967;26;20561;-45
2024/04/20 00:59:05;;;;;;;15.23;14.30;;;6.60;99.90;;;;;;5434614;26;21080;-47
2024/04/20 01:01:31;;;;;;;15.73;14.73;;;6.60;99.90;;;;;;5435776;26;20563;-45
2024/04/20 01:03:56;;;;;;;15.67;14.67;;;6.60;99.90;;;;;;5436796;26;20927;-50
2024/04/20 01:06:22;;;;;;;15.30;14.20;;;6.60;99.90;;;;;;5436367;26;20230;-47
2024/04/20 01:08:48;;;;;;;14.93;14.10;;;6.70;99.90;;;;;;5433916;26;20431;-48
2024/04/20 01:11:17;;;;;;;16.70;15.60;;;6.70;99.90;;;;;;5436341;26;20562;-45
2024/04/20 01:13:52;;;;;;;15.10;14.20;;;6.60;99.90;;;;;;5436448;26;20451;-46
2024/04/20 01:16:18;;;;;;;15.20;14.30;;;6.60;99.90;;;;;;5435928;26;20804;-49
2024/04/20 01:18:44;;;;;;;15.23;14.43;;;6.60;99.90;;;;;;5434520;26;21053;-46
2024/04/20 01:21:12;;;;;;;14.80;14.00;;;6.70;99.90;;;;;;5435604;26;20439;-49
2024/04/20 01:23:39;;;;;;;14.70;13.90;;;6.60;99.90;;;;;;5435597;26;20720;-49
2024/04/20 01:26:05;;;;;;;14.67;13.87;;;6.60;99.90;;;;;;5433488;26;20535;-49
2024/04/20 01:28:31;;;;;;;13.93;13.20;;;6.60;99.90;;;;;;5435215;26;20526;-48
2024/04/20 01:30:56;;;;;;;14.73;13.93;;;6.70;99.90;;;;;;5435461;26;21000;-52
2024/04/20 01:33:22;;;;;;;13.80;13.10;;;6.70;99.90;;;;;;5434400;26;20268;-46
2024/04/20 01:35:48;;;;;;;14.50;13.67;;;6.60;99.90;;;;;;5435639;26;20241;-46
2024/04/20 01:38:14;;;;;;;14.20;13.40;;;6.60;99.90;;;;;;5435622;26;20279;-45
2024/04/20 01:40:39;;;;;;;14.13;13.43;;;6.70;99.90;;;;;;5435694;26;20338;-51
2024/04/20 01:43:05;;;;;;;14.33;13.60;;;6.60;99.90;;;;;;5434505;26;20535;-46
2024/04/20 01:45:31;;;;;;;14.80;13.90;;;6.60;99.90;;;;;;5435927;26;20608;-49
2024/04/20 01:47:56;;;;;;;13.90;13.20;;;6.60;99.90;;;;;;5435528;26;20577;-48
2024/04/20 01:50:23;;;;;;;14.10;13.40;;;6.60;99.90;;;;;;5434170;26;20229;-49
2024/04/20 01:52:49;;;;;;;14.70;13.50;;;6.60;99.90;;;;;;5433181;26;20705;-50
2024/04/20 01:55:14;;;;;;;13.73;12.93;;;6.60;99.90;;;;;;5432805;26;20447;-50
2024/04/20 01:57:40;;;;;;;13.73;12.93;;;6.70;99.90;;;;;;5433315;26;20539;-43
2024/04/20 02:00:06;;;;;;;14.30;13.40;;;6.70;99.90;;;;;;5433524;26;20222;-48
2024/04/20 02:02:32;;;;;;;13.57;12.77;;;6.60;99.90;;;;;;5432334;26;20282;-48
2024/04/20 02:04:57;;;;;;;13.70;12.90;;;6.60;99.90;;;;;;5436485;26;20511;-50
2024/04/20 02:07:23;;;;;;;13.90;12.73;;;6.70;99.90;;;;;;5436758;26;20226;-44
2024/04/20 02:09:48;;;;;;;14.33;13.43;;;6.70;99.90;;;;;;5436455;26;20798;-48
2024/04/20 02:12:14;;;;;;;13.70;13.00;;;6.70;99.90;;;;;;5436527;26;20631;-44
2024/04/20 02:14:39;;;;;;;13.93;13.13;;;6.70;99.90;;;;;;5435821;26;20276;-49
2024/04/20 02:17:05;;;;;;;13.70;13.00;;;6.70;99.90;;;;;;5435934;26;20293;-52
2024/04/20 02:19:31;;;;;;;13.60;12.80;;;6.70;99.90;;;;;;5436494;26;20444;-47
2024/04/20 02:21:57;;;;;;;13.37;12.60;;;6.80;99.90;;;;;;5436613;26;20280;-49
2024/04/20 02:24:22;;;;;;;13.80;13.00;;;6.80;99.90;;;;;;5436238;26;20289;-48
2024/04/20 02:26:49;;;;;;;13.70;12.80;;;6.80;99.90;;;;;;5404651;26;20632;-52
2024/04/20 02:29:15;;;;;;;13.20;12.43;;;6.80;99.90;;;;;;5436075;26;20268;-50
2024/04/20 02:31:41;;;;;;;13.47;12.77;;;6.80;99.90;;;;;;5375774;26;20519;-48
2024/04/20 02:34:06;;;;;;;13.57;12.77;;;6.80;99.90;;;;;;5435726;26;20904;-46
2024/04/20 02:36:33;;;;;;;13.30;12.60;;;6.80;99.90;;;;;;5437330;26;20312;-48
2024/04/20 02:38:59;;;;;;;13.70;12.93;;;6.80;99.90;;;;;;5436520;26;20226;-47
2024/04/20 02:41:25;;;;;;;14.07;13.37;;;6.80;99.90;;;;;;5436021;26;20506;-52
2024/04/20 02:43:51;;;;;;;14.10;13.30;;;6.80;99.90;;;;;;5436475;26;20984;-48
2024/04/20 02:46:16;;;;;;;13.53;12.83;;;6.80;99.90;;;;;;5436605;26;20234;-49
2024/04/20 02:48:42;;;;;;;14.20;13.40;;;6.80;99.90;;;;;;5435864;26;20744;-49
2024/04/20 02:51:08;;;;;;;13.40;12.60;;;6.80;99.90;;;;;;5436280;26;20229;-51
2024/04/20 02:53:34;;;;;;;13.93;13.10;;;6.80;99.90;;;;;;5434797;26;20647;-51
2024/04/20 02:56:00;;;;;;;14.53;13.43;;;6.90;99.90;;;;;;5434843;26;20448;-47
2024/04/20 02:58:26;;;;;;;13.87;13.07;;;6.80;99.90;;;;;;5436071;26;20512;-53
2024/04/20 03:00:59;;;;;;;13.80;13.00;;;6.90;99.90;;;;;;5436008;26;21151;-51
2024/04/20 03:03:26;;;;;;;14.70;13.70;;;6.90;99.90;;;;;;5435498;26;20779;-45
2024/04/20 03:05:52;;;;;;;14.43;13.57;;;7.00;99.90;;;;;;5436557;26;20899;-50
2024/04/20 03:08:17;;;;;;;14.30;13.40;;;7.00;99.90;;;;;;5435612;26;20501;-51
2024/04/20 03:10:44;;;;;;;14.73;13.70;;;7.00;99.90;;;;;;5436294;26;20222;-53
2024/04/20 03:13:10;;;;;;;14.73;13.77;;;7.00;99.90;;;;;;5434113;26;20333;-48
2024/04/20 03:15:36;;;;;;;15.27;14.27;;;7.00;99.90;;;;;;5436221;26;20455;-46
2024/04/20 03:18:03;;;;;;;14.27;13.37;;;7.00;99.90;;;;;;5435861;26;20230;-41
2024/04/20 03:20:28;;;;;;;14.67;13.67;;;7.00;99.90;;;;;;5436047;26;20705;-44
2024/04/20 03:22:54;;;;;;;13.83;13.03;;;7.00;99.90;;;;;;5434928;26;20475;-41
2024/04/20 03:25:19;;;;;;;14.80;13.80;;;7.00;99.90;;;;;;5436091;26;21109;-47
2024/04/20 03:27:46;;;;;;;15.10;14.00;;;6.90;99.90;;;;;;5435319;26;21131;-38
2024/04/20 03:30:12;;;;;;;13.70;12.90;;;6.90;99.90;;;;;;5435571;26;20230;-41
2024/04/20 03:32:37;;;;;;;14.30;13.37;;;6.90;99.90;;;;;;5434146;26;20553;-41
2024/04/20 03:35:06;;;;;;;15.50;14.50;;;6.90;99.90;;;;;;5435877;26;20460;-43
2024/04/20 03:37:32;;;;;;;15.17;14.07;;;6.90;99.90;;;;;;5435842;26;20230;-42
2024/04/20 03:39:58;;;;;;;15.00;14.10;;;6.90;99.90;;;;;;5434768;26;20578;-40
2024/04/20 03:42:25;;;;;;;15.50;14.50;;;7.00;99.90;;;;;;5434853;26;20346;-43
2024/04/20 03:44:50;;;;;;;15.70;14.70;;;7.00;99.90;;;;;;5434956;26;20785;-41
2024/04/20 03:47:16;;;;;;;15.83;14.83;;;7.00;99.90;;;;;;5435513;26;20511;-40
2024/04/20 03:49:42;;;;;;;15.63;14.63;;;7.00;99.90;;;;;;5434910;26;20467;-41
2024/04/20 03:52:08;;;;;;;17.30;16.10;;;6.90;99.90;;;;;;5434670;26;20519;-38
2024/04/20 03:54:34;;;;;;;16.23;15.23;;;6.90;99.90;;;;;;5434902;26;20639;-39
2024/04/20 03:56:59;;;;;;;17.73;16.53;;;6.90;99.90;;;;;;5435575;26;20451;-43
2024/04/20 03:59:25;;;;;;;17.47;16.30;;;6.90;99.90;;;;;;5434876;26;20225;-40
2024/04/20 04:01:51;;;;;;;17.77;16.67;;;6.90;99.90;;;;;;5434788;26;20238;-41
2024/04/20 04:04:17;;;;;;;18.07;16.60;;;6.80;99.90;;;;;;5434726;26;21194;-41
2024/04/20 04:06:42;;;;;;;17.20;16.10;;;6.80;99.90;;;;;;5434646;26;20230;-43
2024/04/20 04:09:08;;;;;;;17.53;16.37;;;6.80;99.90;;;;;;5433643;26;20214;-49
2024/04/20 04:11:34;;;;;;;17.10;16.00;;;6.80;99.90;;;;;;5433230;26;20505;-53
2024/04/20 04:13:59;;;;;;;16.43;15.37;;;6.70;99.90;;;;;;5433487;26;20281;-51
2024/04/20 04:16:25;;;;;;;16.70;15.70;;;6.70;99.90;;;;;;5431773;26;20233;-46
2024/04/20 04:18:51;;;;;;;16.80;15.60;;;6.70;99.90;;;;;;5433721;26;20272;-45
2024/04/20 04:21:16;;;;;;;17.60;16.40;;;6.70;99.90;;;;;;5433054;26;20276;-46
2024/04/20 04:23:42;;;;;;;16.93;15.83;;;6.70;99.90;;;;;;5434143;26;20245;-48
2024/04/20 04:26:09;;;;;;;16.23;15.20;;;6.70;99.90;;;;;;5434052;26;20230;-45
2024/04/20 04:28:35;;;;;;;16.30;15.20;;;6.70;99.90;;;;;;5433243;26;20854;-43
2024/04/20 04:31:01;;;;;;;16.93;15.83;;;6.70;99.90;;;;;;5433264;26;20467;-40
2024/04/20 04:33:26;;;;;;;17.10;16.00;;;6.70;99.90;;;;;;5401791;26;20526;-41
2024/04/20 04:35:56;;;;;;;17.30;16.03;;;6.70;99.90;;;;;;5434867;26;20897;-48
2024/04/20 04:38:22;;;;;;;16.63;15.53;;;6.70;99.90;;;;;;5433663;26;21104;-51
2024/04/20 04:40:48;;;;;;;17.03;15.83;;;6.70;99.90;;;;;;5433584;26;20528;-48
2024/04/20 04:43:13;;;;;;;18.90;17.40;;;6.70;99.90;;;;;;5434489;26;20241;-44
2024/04/20 04:45:39;;;;;;;17.70;16.50;;;6.80;99.90;;;;;;5435076;26;20265;-47
2024/04/20 04:48:05;;;;;;;17.70;16.50;;;6.80;99.90;;;;;;5434406;26;20226;-52
2024/04/20 04:50:31;;;;;;;17.93;16.53;;;6.80;99.90;;;;;;5433714;26;20234;-43
2024/04/20 04:52:59;;;;;;;17.73;16.43;;;6.80;99.90;;;;;;5434353;26;20491;-46
2024/04/20 04:55:25;;;;;;;17.60;16.40;;;6.90;99.90;;;;;;5434054;26;20554;-49
2024/04/20 04:57:51;;;;;;;18.50;17.10;;;6.90;99.90;;;;;;5403098;26;20970;-46
2024/04/20 05:00:16;;;;;;;18.10;16.70;;;6.90;99.90;;;;;;5433042;26;20459;-45
2024/04/20 05:02:42;;;;;;;18.00;16.63;;;6.90;99.90;;;;;;5428186;26;20309;-49
2024/04/20 05:05:07;;;;;;;17.57;16.27;;;6.90;99.90;;;;;;5431232;26;20234;-51
2024/04/20 05:07:33;;;;;;;17.93;16.73;;;6.90;99.90;;;;;;5434496;26;20293;-48
2024/04/20 05:09:59;;;;;;;17.80;16.50;;;7.00;99.90;;;;;;5402499;26;20864;-50
2024/04/20 05:12:24;;;;;;;17.70;16.20;;;6.90;99.90;;;;;;5433053;26;21227;-49
2024/04/20 05:14:51;;;;;;;17.73;16.33;;;6.90;99.90;;;;;;5433742;26;20280;-52
2024/04/20 05:17:17;;;;;;;17.47;16.27;;;6.90;99.90;;;;;;5433769;26;20226;-51
2024/04/20 05:19:42;;;;;;;15.40;14.33;;;6.90;99.90;;;;;;5430991;26;20524;-47
2024/04/20 05:22:08;;;;;;;14.37;13.47;;;6.90;99.90;;;;;;5434153;26;20234;-54
2024/04/20 05:24:34;;;;;;;14.57;13.60;;;6.80;99.90;;;;;;5433829;26;20247;-46
2024/04/20 05:26:59;;;;;;;14.50;13.50;;;6.70;99.90;;;;;;5433627;26;20295;-49
2024/04/20 05:29:25;;;;;;;14.87;14.07;;;6.70;99.90;;;;;;5402252;26;20241;-51
2024/04/20 05:31:50;;;;;;;13.93;13.13;;;6.70;99.90;;;;;;5433094;26;20233;-50
2024/04/20 05:34:16;;;;;;;14.90;13.83;;;6.70;99.90;;;;;;5433659;26;20226;-50
2024/04/20 05:36:42;;;;;;;14.67;13.67;;;6.60;99.90;;;;;;5433407;26;20234;-49
2024/04/20 05:39:08;;;;;;;14.67;13.80;;;6.60;99.90;;;;;;5435086;26;20225;-52
2024/04/20 05:41:34;;;;;;;14.13;13.33;;;6.60;99.90;;;;;;5436261;26;20234;-50
2024/04/20 05:43:59;;;;;;;14.10;13.30;;;6.60;99.90;;;;;;5435326;26;21452;-51
2024/04/20 05:46:25;;;;;;;14.23;13.40;;;6.60;99.90;;;;;;5436815;26;20277;-45
2024/04/20 05:48:51;;;;;;;14.17;13.37;;;6.60;99.90;;;;;;5403677;26;20647;-46
2024/04/20 05:51:16;;;;;;;13.27;12.67;;;6.60;99.90;;;;;;5437018;26;20281;-46
2024/04/20 05:53:42;;;;;;;14.77;13.87;;;6.60;99.90;;;;;;5436314;26;20304;-47
2024/04/20 05:56:07;;;;;;;13.80;13.10;;;6.60;99.90;;;;;;5437827;26;20431;-51
2024/04/20 05:58:33;;;;;;;13.90;13.20;;;6.50;99.90;;;;;;5436858;26;20330;-45
2024/04/20 06:00:59;;;;;;;13.83;13.13;;;6.50;99.90;;;;;;5437239;26;20537;-47
2024/04/20 06:03:24;;;;;;;13.70;13.00;;;6.40;99.90;;;;;;5435568;26;20305;-47
2024/04/20 06:05:51;;;;;;;13.50;12.90;;;6.40;99.90;;;;;;5436754;26;21002;-48
2024/04/20 06:08:16;;;;;;;13.67;12.97;;;6.30;99.90;;;;;;5437504;26;20226;-47
2024/04/20 06:10:53;;;;;;;13.67;12.97;;;6.20;99.90;;;;;;5435697;26;21139;-49
2024/04/20 06:13:19;;;;;;;13.20;12.60;;;6.20;99.90;;;;;;5436013;26;20355;-48
2024/04/20 06:15:44;;;;;;;13.20;12.60;;;6.20;99.90;;;;;;5436450;26;20238;-47
2024/04/20 06:18:10;;;;;;;12.90;12.30;;;6.00;99.90;;;;;;5437030;26;20222;-47
2024/04/20 06:20:37;;;;;;;13.27;12.67;;;6.00;99.90;;;;;;5435920;26;21057;-49
2024/04/20 06:23:04;;;;;;;13.10;12.50;;;5.90;99.90;;;;;;5437273;26;20226;-47
2024/04/20 06:25:29;;;;;;;13.85;13.20;;;5.90;99.90;;;;;;5435861;26;20238;-51
2024/04/20 06:27:55;;;;;;;13.60;12.90;;;5.70;99.90;;;;;;5435037;26;20347;-47
2024/04/20 06:30:21;;;;;;;14.20;13.50;;;5.70;99.90;;;;;;5435455;26;20230;-49
2024/04/20 06:32:49;;;;;;;13.70;13.10;;;5.70;99.90;;;;;;5436077;26;21111;-49
2024/04/20 06:35:15;;;;;;;13.50;12.90;;;5.80;99.90;;;;;;5404255;26;20234;-52
2024/04/20 06:37:40;;;;;;;13.68;13.00;;;5.70;99.90;;;;;;5436840;26;20222;-52
2024/04/20 06:40:06;;;;;;;13.60;13.00;;;5.80;99.90;;;;;;5435661;26;20443;-47
2024/04/20 06:42:32;;;;;;;13.20;12.60;;;5.90;99.90;;;;;;5436671;26;20607;-51
2024/04/20 06:44:58;;;;;;;13.57;12.87;;;5.90;99.90;;;;;;5434211;26;20523;-48
2024/04/20 06:47:24;;;;;;;13.20;12.50;;;5.90;99.90;;;;;;5436547;26;20455;-48
2024/04/20 06:49:54;;;;;;;14.00;13.30;;;6.00;99.90;;;;;;5435147;26;21501;-53
2024/04/20 06:52:20;;;;;;;13.50;12.90;;;6.00;99.90;;;;;;5436671;26;20516;-48
2024/04/20 06:54:45;;;;;;;29.37;26.93;;;6.00;99.90;;;;;;5438397;26;20455;-48
2024/04/20 06:57:11;;;;;;;13.50;12.80;;;6.10;99.90;;;;;;5437450;26;20816;-54
2024/04/20 06:59:37;;;;;;;14.43;13.63;;;6.20;99.90;;;;;;5437516;26;20273;-52
2024/04/20 07:02:03;;;;;;;16.40;15.50;;;6.20;99.90;;;;;;5437885;26;20233;-53
2024/04/20 07:04:28;;;;;;;29.23;26.73;;;6.20;99.90;;;;;;5436243;26;20274;-46
2024/04/20 07:06:54;;;;;;;14.13;13.43;;;6.30;99.90;;;;;;5438293;26;20234;-47
2024/04/20 07:09:19;;;;;;;15.63;14.83;;;6.40;99.90;;;;;;5418303;26;20311;-47
2024/04/20 07:11:45;;;;;;;14.57;13.87;;;6.30;99.90;;;;;;5436040;26;20226;-52
2024/04/20 07:14:11;;;;;;;15.30;14.50;;;6.30;99.90;;;;;;5434347;26;20350;-51
2024/04/20 07:16:36;;;;;;;19.30;18.20;;;6.30;99.90;;;;;;5434148;26;21055;-48
2024/04/20 07:19:02;;;;;;;13.97;13.33;;;6.30;99.90;;;;;;5438348;26;20281;-45
2024/04/20 07:21:27;;;;;;;14.30;13.60;;;6.20;99.90;;;;;;5436915;26;20234;-49
2024/04/20 07:23:53;;;;;;;18.53;17.43;;;6.10;99.90;;;;;;5437540;26;20310;-49
2024/04/20 07:26:19;;;;;;;16.63;15.73;;;6.00;99.90;;;;;;5436765;26;20288;-49
2024/04/20 07:28:44;;;;;;;17.63;16.57;;;6.00;99.90;;;;;;5437687;26;20230;-49
2024/04/20 07:31:10;;;;;;;16.07;15.23;;;6.00;99.90;;;;;;5437836;26;20226;-46
2024/04/20 07:33:35;;;;;;;13.63;13.00;;;5.90;99.90;;;;;;5437991;26;20629;-47
2024/04/20 07:36:01;;;;;;;13.60;12.90;;;5.80;99.90;;;;;;5436717;26;20269;-48
2024/04/20 07:38:27;;;;;;;13.77;13.07;;;5.80;99.90;;;;;;5437670;26;20221;-46
2024/04/20 07:40:52;;;;;;;13.70;13.10;;;5.80;99.90;;;;;;5437997;26;20233;-52
2024/04/20 07:43:18;;;;;;;14.27;13.47;;;5.80;99.90;;;;;;5437485;26;20230;-50
2024/04/20 07:45:44;;;;;;;13.77;13.13;;;5.80;99.90;;;;;;5436146;26;20242;-47
2024/04/20 07:48:10;;;;;;;14.30;13.60;;;5.80;99.90;;;;;;5437730;26;20634;-50
2024/04/20 07:50:35;;;;;;;13.38;12.75;;;5.80;99.90;;;;;;5432850;26;20246;-48
2024/04/20 07:53:01;;;;;;;13.60;13.00;;;5.70;99.90;;;;;;5432115;26;20253;-50
2024/04/20 07:55:27;;;;;;;13.60;13.00;;;5.80;99.90;;;;;;5434013;26;20796;-48
2024/04/20 07:57:52;;;;;;;13.43;12.83;;;5.80;99.90;;;;;;5433504;26;20295;-49
2024/04/20 08:00:18;;;;;;;13.97;13.27;;;5.90;99.90;;;;;;5433626;26;20234;-47
2024/04/20 08:02:44;;;;;;;13.90;13.30;;;5.80;99.90;;;;;;5434432;26;20653;-52
2024/04/20 08:05:10;;;;;;;13.70;13.00;;;5.90;99.90;;;;;;5434920;26;20606;-48
2024/04/20 08:07:36;;;;;;;13.40;12.73;;;5.80;99.90;;;;;;5434530;26;20276;-49
2024/04/20 08:10:02;;;;;;;13.40;12.80;;;5.80;99.90;;;;;;5435258;26;20647;-45
2024/04/20 08:12:27;;;;;;;13.70;13.03;;;5.80;99.90;;;;;;5434916;26;20260;-48
2024/04/20 08:14:53;;;;;;;13.40;12.60;;;5.90;99.90;;;;;;5434325;26;20837;-50
2024/04/20 08:17:18;;;;;;;13.63;12.90;;;5.80;99.90;;;;;;5402775;26;20732;-51
2024/04/20 08:19:47;;;;;;;13.07;12.47;;;5.80;99.90;;;;;;5435256;26;20555;-48
2024/04/20 08:22:13;;;;;;;13.02;12.43;;;5.80;99.90;;;;;;5433660;26;20226;-51
2024/04/20 08:24:38;;;;;;;12.23;11.63;;;5.80;99.90;;;;;;5434973;26;20277;-47
2024/04/20 08:27:04;;;;;;;13.80;13.20;;;5.80;99.90;;;;;;5434375;26;20238;-48
2024/04/20 08:29:30;;;;;;;14.27;13.57;;;5.90;99.90;;;;;;5405966;26;20317;-46
2024/04/20 08:31:55;;;;;;;14.13;13.43;;;5.90;99.90;;;;;;5434510;26;20322;-50
2024/04/20 08:34:21;;;;;;;14.10;13.40;;;5.90;99.90;;;;;;5434118;26;20260;-48
2024/04/20 08:36:47;;;;;;;14.37;13.70;;;5.80;99.90;;;;;;5433590;26;20234;-44
2024/04/20 08:39:13;;;;;;;13.10;12.50;;;5.80;99.90;;;;;;5434528;26;20280;-49
2024/04/20 08:41:47;;;;;;;13.03;12.43;;;5.80;99.90;;;;;;5434794;26;20716;-48
2024/04/20 08:44:18;;;;;;;14.45;13.65;;;5.80;99.90;;;;;;5432476;26;20303;-50
2024/04/20 08:46:44;;;;;;;14.10;13.38;;;5.70;99.90;;;;;;5432944;26;20233;-50
2024/04/20 08:49:11;;;;;;;14.50;13.80;;;5.60;99.90;;;;;;5435173;26;20222;-47
2024/04/20 08:51:38;;;;;;;14.43;13.65;;;5.70;99.90;;;;;;5433746;26;20280;-50
2024/04/20 08:54:06;;;;;;;16.30;15.10;;;5.70;99.90;;;;;;5434246;26;20269;-46
2024/04/20 08:56:33;;;;;;;15.18;14.35;;;5.70;99.90;;;;;;5431457;26;20238;-50
2024/04/20 08:59:00;;;;;;;19.17;17.80;;;5.70;99.90;;;;;;5433486;26;20226;-49
2024/04/20 09:01:29;;;;;;;15.40;14.60;;;5.60;99.90;;;;;;5434023;26;20226;-51
2024/04/20 09:03:55;;;;;;;15.98;15.15;;;5.60;99.90;;;;;;5433506;26;20280;-48
2024/04/20 09:06:21;;;;;;;23.43;21.13;;;5.70;99.90;;;;;;5432734;26;20238;-44
2024/04/20 09:08:47;;;;;;;22.15;20.23;;;5.70;99.90;;;;;;5433577;26;20505;-47
2024/04/20 09:11:13;;;;;;;15.27;14.23;;;5.80;99.90;;;;;;5433104;26;20226;-54
2024/04/20 09:13:39;;;;;;;21.58;19.35;;;5.90;99.90;;;;;;5430821;26;20831;-50
2024/04/20 09:16:06;;;;;;;19.73;18.07;;;5.90;99.90;;;;;;5433251;26;20268;-49
2024/04/20 09:18:32;;;;;;;17.17;15.88;;;5.90;99.90;;;;;;5431574;26;20276;-48
2024/04/20 09:20:58;;;;;;;19.57;17.77;;;5.80;99.90;;;;;;5433417;26;20246;-52
2024/04/20 09:23:23;;;;;;;46.07;29.83;;;5.60;99.90;;;;;;5434408;26;20229;-48
2024/04/20 09:25:53;;;;;;;60.63;35.77;;;5.60;99.90;;;;;;5433997;26;20589;-48
2024/04/20 09:28:20;;;;;;;18.75;17.15;;;5.70;99.90;;;;;;5433374;26;20237;-51
2024/04/20 09:30:51;;;;;;;17.73;16.42;;;5.80;99.90;;;;;;5434193;26;20260;-45
2024/04/20 09:33:17;;;;;;;32.70;29.25;;;5.90;99.90;;;;;;5434852;26;20238;-50
2024/04/20 09:35:46;;;;;;;22.20;19.73;;;6.00;99.90;;;;;;5431621;26;20238;-51
2024/04/20 09:38:11;;;;;;;29.15;26.23;;;5.90;99.90;;;;;;5432542;26;20299;-51
2024/04/20 09:40:37;;;;;;;82.83;49.63;;;5.80;99.90;;;;;;5434104;26;20623;-46
2024/04/20 09:43:04;;;;;;;54.50;36.07;;;5.90;99.90;;;;;;5402369;26;20229;-50
2024/04/20 09:45:30;;;;;;;26.73;23.88;;;5.90;99.90;;;;;;5434198;26;20343;-46
2024/04/20 09:47:59;;;;;;;161.48;78.00;;;5.90;99.90;;;;;;5432735;26;20230;-52
2024/04/20 09:50:26;;;;;;;149.38;69.88;;;5.90;99.90;;;;;;5433386;26;20226;-47
2024/04/20 09:52:58;;;;;;;75.10;45.00;;;5.90;99.90;;;;;;5432926;26;20619;-46
2024/04/20 09:55:30;;;;;;;66.82;40.47;;;5.90;99.90;;;;;;5434176;26;20238;-49
2024/04/20 09:57:58;;;;;;;29.77;26.98;;;5.90;99.90;;;;;;5431023;26;20293;-49
2024/04/20 10:00:24;;;;;;;20.40;18.48;;;5.90;99.90;;;;;;5433468;26;20234;-44
2024/04/20 10:02:50;;;;;;;16.65;15.65;;;5.90;99.90;;;;;;5432875;26;20226;-43
2024/04/20 10:05:17;;;;;;;16.60;15.60;;;5.90;99.90;;;;;;5432692;26;21093;-45
2024/04/20 10:07:46;;;;;;;20.63;19.13;;;5.90;99.90;;;;;;5431954;26;20590;-47
2024/04/20 10:10:15;;;;;;;15.05;14.25;;;5.90;99.90;;;;;;5433698;26;20713;-48
2024/04/20 10:12:42;;;;;;;16.17;15.30;;;6.00;99.90;;;;;;5432834;26;20238;-49
2024/04/20 10:15:08;;;;;;;16.00;15.13;;;6.00;99.90;;;;;;5433190;26;20265;-48
2024/04/20 10:17:34;;;;;;;19.98;18.63;;;6.00;99.90;;;;;;5431213;26;20230;-44
2024/04/20 10:20:00;;;;;;;16.75;15.48;;;6.00;99.90;;;;;;5433345;26;20757;-51
2024/04/20 10:22:26;;;;;;;17.23;16.13;;;6.10;99.90;;;;;;5432692;26;20281;-48
2024/04/20 10:24:53;;;;;;;15.47;14.70;;;6.10;99.90;;;;;;5434980;26;20229;-45
2024/04/20 10:27:26;;;;;;;15.53;14.73;;;6.20;99.90;;;;;;5434775;26;20234;-48
2024/04/20 10:29:52;;;;;;;15.77;14.77;;;6.20;99.90;;;;;;5437173;26;21094;-48
2024/04/20 10:32:23;;;;;;;16.30;15.40;;;6.10;99.90;;;;;;5435831;26;20311;-52
2024/04/20 10:34:49;;;;;;;16.17;15.25;;;6.20;99.90;;;;;;5436987;26;20708;-46
2024/04/20 10:37:24;;;;;;;16.13;15.23;;;6.10;99.90;;;;;;5435436;26;20273;-48
2024/04/20 10:39:50;;;;;;;15.80;14.80;;;6.20;99.90;;;;;;5436795;26;20284;-47
2024/04/20 10:42:22;;;;;;;16.43;15.40;;;6.20;99.90;;;;;;5436333;26;20878;-47
2024/04/20 10:44:48;;;;;;;15.00;14.20;;;6.10;99.90;;;;;;5436265;26;20335;-54
2024/04/20 10:47:21;;;;;;;15.97;15.07;;;6.10;99.90;;;;;;5434875;26;20234;-52
2024/04/20 10:49:46;;;;;;;16.40;15.50;;;6.10;99.90;;;;;;5436542;26;20346;-49
2024/04/20 10:52:19;;;;;;;15.83;14.93;;;6.20;99.90;;;;;;5436030;26;20463;-52
2024/04/20 10:54:44;;;;;;;15.27;14.45;;;6.30;99.90;;;;;;5435732;26;20267;-47
2024/04/20 10:57:11;;;;;;;14.53;13.80;;;6.40;99.90;;;;;;5435092;26;20229;-49
2024/04/20 10:59:43;;;;;;;14.80;14.00;;;6.60;99.90;;;;;;5436524;26;20791;-47
2024/04/20 11:02:13;;;;;;;15.30;14.20;;;6.70;99.90;;;;;;5435545;26;20338;-45
2024/04/20 11:04:39;;;;;;;16.20;14.97;;;6.60;99.90;;;;;;5435858;26;20826;-45
2024/04/20 11:07:05;;;;;;;15.90;15.00;;;6.50;78.80;;;;;;5435510;26;20475;-48
2024/04/20 11:09:32;;;;;;;14.73;13.93;;;6.40;99.60;;;;;;5432899;26;20230;-50
2024/04/20 11:12:02;;;;;;;15.00;14.20;;;6.20;99.90;;;;;;5435794;26;20569;-51
2024/04/20 11:14:28;;;;;;;16.23;15.32;;;6.20;99.90;;;;;;5435967;26;20242;-49
2024/04/20 11:16:54;;;;;;;14.93;14.05;;;6.10;99.90;;;;;;5434737;26;20778;-50
2024/04/20 11:19:20;;;;;;;15.40;14.40;;;6.10;99.90;;;;;;5435642;26;20237;-47
2024/04/20 11:21:46;;;;;;;15.70;14.80;;;6.10;99.90;;;;;;5436131;26;20301;-49
2024/04/20 11:24:12;;;;;;;14.80;14.10;;;6.10;99.90;;;;;;5434737;26;20447;-46
2024/04/20 11:26:38;;;;;;;15.90;14.80;;;6.10;99.90;;;;;;5434041;26;20811;-41
2024/04/20 11:29:04;;;;;;;15.73;14.83;;;6.20;99.90;;;;;;5435550;26;20452;-41
2024/04/20 11:31:30;;;;;;;15.75;14.95;;;6.10;99.90;;;;;;5436084;26;20231;-39
2024/04/20 11:33:55;;;;;;;15.20;14.30;;;6.20;99.90;;;;;;5434875;26;20284;-41
2024/04/20 11:36:22;;;;;;;14.73;13.93;;;6.10;99.90;;;;;;5401634;26;20234;-40
2024/04/20 11:38:48;;;;;;;18.83;17.50;;;6.10;99.90;;;;;;5435759;26;20226;-50
2024/04/20 11:41:26;;;;;;;14.40;13.70;;;6.00;99.90;;;;;;5436170;26;21147;-49
2024/04/20 11:44:04;;;;;;;16.10;15.20;;;6.00;99.90;;;;;;5433335;26;20313;-38
2024/04/20 11:46:30;;;;;;;16.20;15.40;;;6.00;99.90;;;;;;5433066;26;20977;-39
2024/04/20 11:48:55;;;;;;;21.30;19.70;;;6.10;97.30;;;;;;5435434;26;20268;-49
2024/04/20 11:54:18;;;;;;;15.20;14.40;;;6.20;56.80;;;;;;5432764;26;20285;-46
2024/04/20 11:56:44;;;;;;;14.40;13.60;;;6.40;61.90;;;;;;5431522;26;20720;-51
2024/04/20 11:59:13;;;;;;;15.23;14.40;;;6.60;68.40;;;;;;5432873;26;20463;-47
2024/04/20 12:01:39;;;;;;;15.23;14.33;;;6.80;75.10;;;;;;5434652;26;20959;-48
2024/04/20 12:04:08;;;;;;;16.80;15.80;;;7.10;40.30;;;;;;5434317;26;20475;-43
2024/04/20 12:06:34;;;;;;;13.50;12.80;;;7.20;27.40;;;;;;5431069;26;20540;-47
2024/04/20 12:09:00;;;;;;;17.73;16.63;;;7.20;1.00;;;;;;5403020;26;20471;-47
2024/04/20 12:11:26;;;;;;;14.57;13.67;;;7.30;6.40;;;;;;5435517;26;20503;-47
2024/04/20 12:13:51;;;;;;;14.77;13.97;;;7.40;1.00;;;;;;5409278;26;20786;-46
2024/04/20 12:16:17;;;;;;;13.40;12.70;;;7.50;1.00;;;;;;5435197;26;20653;-49
2024/04/20 12:18:44;;;;;;;13.10;12.30;;;7.60;1.00;;;;;;5432117;26;20229;-50
2024/04/20 12:21:13;;;;;;;13.07;12.37;;;7.60;1.00;;;;;;5435265;26;20268;-52
2024/04/20 12:23:39;;;;;;;13.83;12.93;;;7.70;1.00;;;;;;5432977;26;20471;-48
2024/04/20 12:26:06;;;;;;;13.27;12.60;;;7.80;1.00;;;;;;5401994;26;20479;-48
2024/04/20 12:28:32;;;;;;;12.80;12.10;;;7.90;1.00;;;;;;5432670;26;20552;-50
2024/04/20 12:31:00;;;;;;;11.63;11.03;;;7.90;1.00;;;;;;5435174;26;20459;-43
2024/04/20 12:33:26;;;;;;;11.93;11.43;;;7.90;1.00;;;;;;5432879;26;20238;-48
2024/04/20 12:35:52;;;;;;;12.20;11.60;;;7.80;1.00;;;;;;5433041;26;20982;-50